Time;durP1;ratioP1;P1;durP2;ratioP2;P2;SDS_P1;SDS_P2;PMS_P1;PMS_P2;Temp;Humidity;BMP_temperature;BMP_pressure;BME280_temperature;BME280_humidity;BME280_pressure;Samples;Min_cycle;Max_cycle;Signal;HPM_P1;HPM_P2
2022/12/29 00:02:27;;;;;;;0.77;0.77;;;11.70;63.10;;;10.55;63.50;100351.63;12244290;19;20039;-82
2022/12/29 00:06:29;;;;;;;1.15;1.00;;;11.70;63.10;;;10.56;63.54;100358.53;12244473;19;20018;-82
2022/12/29 00:10:32;;;;;;;1.00;0.90;;;11.70;63.10;;;10.55;63.75;100343.78;12243543;19;20029;-82
2022/12/29 00:18:55;;;;;;;1.58;1.20;;;11.70;63.10;;;10.47;63.70;100332.97;12243274;19;20014;-82
2022/12/29 00:36:15;;;;;;;1.65;1.20;;;11.70;63.20;;;10.44;63.67;100314.06;12246454;19;20014;-82
2022/12/29 00:44:37;;;;;;;1.95;1.10;;;11.70;63.10;;;10.50;63.69;100311.06;12255979;19;20011;-82
2022/12/29 00:53:00;;;;;;;0.80;0.80;;;11.70;62.90;;;10.56;63.66;100313.31;12255660;19;20015;-82
2022/12/29 00:57:03;;;;;;;2.25;0.93;;;11.70;62.90;;;10.59;63.66;100321.78;12256406;19;20016;-82
2022/12/29 01:01:08;;;;;;;1.25;1.05;;;11.70;62.60;;;10.59;63.77;100308.75;12253012;19;20339;-82
2022/12/29 01:05:10;;;;;;;1.17;1.10;;;11.70;62.30;;;10.59;63.66;100306.13;12255559;19;20056;-82
2022/12/29 01:13:35;;;;;;;1.23;1.15;;;11.80;62.10;;;10.65;63.83;100302.28;12254203;19;20017;-82
2022/12/29 01:17:37;;;;;;;1.48;1.35;;;11.80;62.00;;;10.64;63.78;100290.19;12256051;19;20031;-82
2022/12/29 01:21:38;;;;;;;0.88;0.88;;;11.90;62.00;;;10.65;63.68;100291.84;12251781;19;20019;-81
2022/12/29 01:25:40;;;;;;;0.85;0.82;;;11.90;62.10;;;10.54;63.81;100261.19;12254411;19;20002;-82
2022/12/29 01:29:42;;;;;;;1.55;1.30;;;11.90;61.70;;;10.74;63.58;100290.44;12252677;19;20018;-82
2022/12/29 01:33:44;;;;;;;1.20;1.08;;;11.90;60.90;;;10.81;63.56;100299.56;12253748;19;20022;-82
2022/12/29 01:37:47;;;;;;;0.93;0.80;;;11.90;61.30;;;10.84;63.47;100292.38;12255739;19;20019;-82
2022/12/29 01:41:49;;;;;;;1.00;1.00;;;12.00;61.50;;;10.87;63.55;100299.16;12247434;19;20045;-82
2022/12/29 01:45:54;;;;;;;1.13;1.00;;;12.00;61.20;;;10.86;63.56;100289.66;12253061;19;20014;-82
2022/12/29 01:50:02;;;;;;;1.35;0.98;;;12.10;61.20;;;10.87;63.54;100290.50;12248962;19;20010;-82
2022/12/29 01:54:19;;;;;;;0.95;0.95;;;12.00;60.60;;;10.89;63.55;100281.63;12253413;19;20010;-82
2022/12/29 01:58:24;;;;;;;1.33;1.10;;;12.10;60.80;;;10.85;63.58;100273.16;12251695;19;20572;-82
2022/12/29 02:02:27;;;;;;;1.52;1.00;;;12.10;60.90;;;10.96;63.49;100277.66;12248499;19;20018;-82
2022/12/29 02:06:41;;;;;;;1.17;1.00;;;12.10;60.90;;;10.96;63.46;100269.84;12244643;19;20021;-82
2022/12/29 02:10:44;;;;;;;1.90;1.13;;;12.20;60.80;;;10.90;63.48;100241.50;12247742;19;20103;-81
2022/12/29 02:14:49;;;;;;;1.23;1.13;;;12.20;60.70;;;11.05;63.35;100260.59;12249190;19;20028;-82
2022/12/29 02:19:40;;;;;;;2.08;1.05;;;12.20;60.20;;;11.02;63.28;100259.00;12249714;19;20031;-82
2022/12/29 02:24:23;;;;;;;4.13;1.10;;;12.20;60.10;;;11.03;63.43;100254.63;12247691;19;20027;-82
2022/12/29 02:28:50;;;;;;;2.55;1.15;;;12.30;60.50;;;11.05;63.37;100253.59;12243406;19;20112;-82
2022/12/29 02:33:07;;;;;;;1.33;0.90;;;12.30;59.90;;;11.08;63.34;100249.94;12246180;19;20078;-82
2022/12/29 02:37:45;;;;;;;0.90;0.90;;;12.30;59.60;;;11.09;63.29;100243.75;12248781;19;20025;-82
2022/12/29 02:42:19;;;;;;;0.90;0.90;;;12.30;59.80;;;11.02;63.42;100232.88;12245601;19;20003;-82
2022/12/29 02:46:49;;;;;;;0.90;0.90;;;12.30;59.90;;;11.08;63.42;100237.69;12248907;19;20033;-82
2022/12/29 02:51:29;;;;;;;1.30;1.20;;;12.40;59.80;;;11.18;63.31;100235.34;12247405;19;20021;-82
2022/12/29 02:55:33;;;;;;;0.90;0.90;;;12.40;59.70;;;11.04;63.25;100207.50;12245652;19;20007;-82
2022/12/29 02:59:36;;;;;;;1.00;1.00;;;12.40;59.60;;;11.21;63.20;100227.28;12245773;19;20536;-82
2022/12/29 03:04:14;;;;;;;1.20;1.10;;;12.40;59.60;;;11.26;63.13;100230.44;12245620;19;20006;-82
2022/12/29 03:08:52;;;;;;;1.13;0.80;;;12.50;59.50;;;11.22;63.22;100225.50;12246347;19;20471;-82
2022/12/29 03:18:09;;;;;;;1.23;1.05;;;12.50;59.50;;;11.26;63.16;100214.75;12246833;19;20018;-82
2022/12/29 03:22:35;;;;;;;1.17;1.00;;;12.60;59.30;;;11.24;63.05;100184.44;12245671;19;20025;-82
2022/12/29 03:26:46;;;;;;;1.20;1.10;;;12.60;59.50;;;11.34;63.33;100195.09;12247394;19;20092;-82
2022/12/29 03:30:48;;;;;;;3.72;0.98;;;12.60;59.40;;;11.45;63.22;100195.22;12244357;19;20473;-82
2022/12/29 03:34:54;;;;;;;1.20;1.10;;;12.60;59.30;;;11.37;62.92;100174.84;12246893;19;20021;-82
2022/12/29 03:39:11;;;;;;;1.13;0.80;;;12.70;59.20;;;11.36;63.06;100170.53;12246933;19;20061;-82
2022/12/29 03:43:15;;;;;;;1.10;0.98;;;12.70;59.30;;;11.50;63.10;100198.34;12243178;19;20361;-82
2022/12/29 03:47:17;;;;;;;0.90;0.90;;;12.70;59.40;;;11.42;62.98;100174.50;12246681;19;20023;-82
2022/12/29 03:51:21;;;;;;;1.27;1.13;;;12.70;59.40;;;11.50;62.94;100180.91;12242378;19;20322;-82
2022/12/29 03:55:24;;;;;;;0.75;0.75;;;12.80;59.30;;;11.54;62.86;100185.94;12245641;19;20472;-82
2022/12/29 03:59:26;;;;;;;1.40;1.13;;;12.70;59.30;;;11.58;62.82;100193.44;12243995;19;20007;-82
2022/12/29 04:03:27;;;;;;;1.00;1.00;;;12.80;59.40;;;11.60;62.87;100185.50;12242600;19;20015;-82
2022/12/29 04:07:29;;;;;;;0.70;0.70;;;12.80;59.20;;;11.62;62.85;100186.25;12243004;19;20089;-82
2022/12/29 04:11:33;;;;;;;1.17;0.77;;;12.80;59.20;;;11.61;62.83;100187.16;12242996;19;20043;-82
2022/12/29 04:15:36;;;;;;;3.50;0.90;;;12.80;59.20;;;11.69;62.71;100195.31;12257643;19;20516;-82
2022/12/29 04:19:37;;;;;;;1.15;1.05;;;12.90;59.10;;;11.39;62.92;100135.50;12254491;19;20428;-82
2022/12/29 04:23:39;;;;;;;1.02;0.93;;;12.90;59.20;;;11.59;62.95;100162.91;12252058;19;20017;-82
2022/12/29 04:27:43;;;;;;;2.67;0.90;;;12.90;59.10;;;11.61;62.89;100158.41;12255263;19;20018;-82
2022/12/29 04:32:07;;;;;;;0.85;0.85;;;12.90;58.90;;;11.76;62.70;100188.75;12256593;19;20059;-82
2022/12/29 04:36:12;;;;;;;1.00;0.90;;;13.00;59.30;;;11.77;62.91;100193.03;12257024;19;20090;-82
2022/12/29 04:40:14;;;;;;;1.35;1.25;;;13.00;59.10;;;11.75;62.82;100179.22;12252664;19;20006;-82
2022/12/29 04:44:16;;;;;;;1.08;1.00;;;13.00;59.20;;;11.77;62.61;100168.66;12254892;19;20493;-82
2022/12/29 04:48:36;;;;;;;0.90;0.90;;;13.00;59.20;;;11.80;62.73;100178.88;12255675;19;20019;-82
2022/12/29 04:53:01;;;;;;;0.90;0.90;;;13.00;59.10;;;11.86;62.76;100171.50;12254108;19;20034;-82
2022/12/29 04:57:04;;;;;;;1.52;1.15;;;13.10;59.30;;;11.89;62.71;100171.28;12256467;19;20022;-82
2022/12/29 05:01:05;;;;;;;0.98;0.95;;;13.10;59.00;;;11.85;62.62;100161.94;12252392;19;20464;-82
2022/12/29 05:05:08;;;;;;;1.25;1.15;;;13.10;59.10;;;11.95;62.66;100180.50;12255633;19;20031;-82
2022/12/29 05:09:14;;;;;;;1.02;1.00;;;13.10;58.90;;;12.00;62.61;100167.91;12253954;19;20095;-82
2022/12/29 05:13:16;;;;;;;1.08;0.98;;;13.20;59.10;;;11.97;62.58;100156.84;12253135;19;20349;-82
2022/12/29 05:17:18;;;;;;;1.40;1.10;;;13.20;59.10;;;11.91;62.63;100148.47;12254387;19;20027;-82
2022/12/29 05:21:20;;;;;;;1.33;1.05;;;13.20;59.10;;;11.96;62.51;100150.75;12248909;19;20027;-82
2022/12/29 05:25:23;;;;;;;0.85;0.85;;;13.20;59.00;;;12.02;62.48;100157.34;12252659;19;20082;-82
2022/12/29 05:29:57;;;;;;;1.58;1.20;;;13.20;59.10;;;12.05;62.52;100150.13;12250543;19;20026;-83
2022/12/29 05:34:00;;;;;;;1.65;0.90;;;13.20;58.80;;;11.97;62.69;100135.91;12251168;19;20039;-82
2022/12/29 05:38:03;;;;;;;0.90;0.90;;;13.30;59.10;;;12.08;62.33;100136.81;12253696;19;20027;-82
2022/12/29 05:42:05;;;;;;;1.30;1.20;;;13.20;59.10;;;12.01;62.32;100111.19;12250892;19;20358;-82
2022/12/29 05:46:31;;;;;;;1.10;1.00;;;13.30;59.10;;;12.07;62.37;100132.53;12252613;19;20019;-82
2022/12/29 05:50:59;;;;;;;0.80;0.80;;;13.30;59.10;;;12.04;62.68;100116.19;12250786;19;20042;-82
2022/12/29 05:55:12;;;;;;;1.00;1.00;;;13.30;59.20;;;12.03;62.51;100115.38;12254191;19;20010;-82
2022/12/29 05:59:15;;;;;;;1.35;0.70;;;13.30;59.10;;;11.99;62.45;100106.06;12250368;19;20011;-82
2022/12/29 06:03:17;;;;;;;1.05;1.02;;;13.30;59.30;;;12.11;62.41;100135.75;12249284;19;20066;-82
2022/12/29 06:07:19;;;;;;;1.30;1.20;;;13.30;59.10;;;12.09;62.49;100111.47;12252736;19;20049;-82
2022/12/29 06:11:23;;;;;;;1.13;1.10;;;13.30;59.10;;;12.12;62.29;100119.09;12246329;19;20007;-82
2022/12/29 06:15:29;;;;;;;1.02;1.00;;;13.30;59.20;;;12.04;62.23;100096.09;12248236;19;20027;-82
2022/12/29 06:19:31;;;;;;;1.80;1.30;;;13.30;59.00;;;12.13;62.25;100110.31;12247322;19;20022;-82
2022/12/29 06:23:33;;;;;;;1.05;0.95;;;13.40;59.10;;;12.22;62.26;100127.97;12246438;19;20018;-82
2022/12/29 06:27:35;;;;;;;1.05;0.95;;;13.30;58.80;;;12.23;62.34;100121.78;12249843;19;20018;-82
2022/12/29 06:31:37;;;;;;;2.67;1.02;;;13.40;59.00;;;12.25;62.25;100111.22;12247856;19;20038;-82
2022/12/29 06:35:39;;;;;;;0.98;0.98;;;13.40;59.00;;;12.23;62.20;100106.06;12249328;19;20416;-82
2022/12/29 06:39:43;;;;;;;1.60;0.80;;;13.40;59.00;;;12.29;62.27;100125.78;12248770;19;20042;-81
2022/12/29 06:43:47;;;;;;;1.15;1.00;;;13.40;59.10;;;12.28;62.28;100113.59;12249351;19;20064;-82
2022/12/29 06:47:59;;;;;;;1.83;1.10;;;13.40;59.10;;;12.04;62.29;100075.16;12252681;19;20025;-82
2022/12/29 06:52:04;;;;;;;1.08;0.93;;;13.50;59.20;;;12.32;62.26;100120.31;12251505;19;20395;-82
2022/12/29 06:56:06;;;;;;;1.20;0.95;;;13.50;59.20;;;12.39;62.28;100142.47;12251944;19;20022;-82
2022/12/29 07:00:09;;;;;;;0.82;0.82;;;13.50;59.10;;;12.41;62.16;100145.81;12251490;19;20018;-82
2022/12/29 07:04:10;;;;;;;0.90;0.90;;;13.50;59.10;;;12.43;62.15;100143.09;12247321;19;20011;-82
2022/12/29 07:08:12;;;;;;;1.05;1.00;;;13.60;59.00;;;12.40;62.18;100134.50;12250858;19;20014;-82
2022/12/29 07:12:14;;;;;;;1.08;1.00;;;13.60;59.10;;;12.46;62.18;100142.88;12250684;19;20081;-82
2022/12/29 07:16:16;;;;;;;0.90;0.90;;;13.60;59.00;;;12.17;62.02;100103.91;12249041;19;20350;-82
2022/12/29 07:20:18;;;;;;;1.35;0.95;;;13.60;58.90;;;12.43;62.12;100143.09;12247456;19;20369;-82
2022/12/29 07:24:20;;;;;;;0.90;0.80;;;13.60;59.00;;;12.48;61.98;100152.28;12248081;19;20030;-83
2022/12/29 07:28:22;;;;;;;0.90;0.90;;;13.70;59.00;;;12.38;62.13;100133.78;12248667;19;20039;-82
2022/12/29 07:32:23;;;;;;;0.88;0.88;;;13.60;58.90;;;12.40;62.04;100144.16;12245712;19;20010;-84
2022/12/29 07:36:26;;;;;;;1.05;0.95;;;13.60;59.00;;;12.47;62.16;100158.44;12246178;19;20018;-83
2022/12/29 07:40:27;;;;;;;0.90;0.90;;;13.60;59.00;;;12.47;62.04;100150.59;12244781;19;20026;-82
2022/12/29 07:44:29;;;;;;;0.75;0.75;;;13.60;59.10;;;12.22;61.97;100103.59;12247628;19;20160;-82
2022/12/29 07:48:39;;;;;;;1.02;0.60;;;13.60;59.00;;;12.30;62.01;100117.78;12257439;19;20032;-82
2022/12/29 07:52:41;;;;;;;1.77;0.98;;;13.60;59.10;;;12.51;61.96;100151.22;12261710;19;20096;-80
2022/12/29 07:56:44;;;;;;;0.98;0.90;;;13.60;59.10;;;12.49;62.08;100140.84;12261104;19;20021;-81
2022/12/29 08:00:46;;;;;;;0.77;0.77;;;13.60;59.20;;;12.52;62.05;100153.72;12259287;19;20015;-81
2022/12/29 08:04:48;;;;;;;0.90;0.90;;;13.70;59.30;;;12.56;61.95;100146.50;12262593;19;20504;-81
2022/12/29 08:08:50;;;;;;;1.13;0.80;;;13.60;59.30;;;12.50;62.00;100125.97;12258993;19;20014;-83
2022/12/29 08:12:51;;;;;;;0.95;0.90;;;13.70;59.00;;;12.62;61.91;100138.19;12259772;19;20027;-81
2022/12/29 08:16:53;;;;;;;1.42;0.93;;;13.70;59.30;;;12.66;61.97;100144.03;12262510;19;20029;-81
2022/12/29 08:20:55;;;;;;;0.73;0.73;;;13.80;59.30;;;12.63;62.01;100131.97;12260139;19;20662;-81
2022/12/29 08:24:57;;;;;;;1.40;0.95;;;13.80;59.20;;;12.66;61.86;100120.44;12260422;19;20381;-81
2022/12/29 08:28:59;;;;;;;0.90;0.90;;;13.80;59.20;;;12.77;62.04;100129.22;12254453;19;20070;-82
2022/12/29 08:33:01;;;;;;;2.25;1.00;;;13.80;59.10;;;12.75;61.95;100118.00;12258867;19;20018;-82
2022/12/29 08:37:03;;;;;;;0.70;0.70;;;13.90;59.30;;;12.80;61.95;100128.97;12255899;19;20018;-82
2022/12/29 08:41:05;;;;;;;1.17;0.88;;;13.90;59.30;;;12.84;61.96;100140.88;12254329;19;20018;-82
2022/12/29 08:45:08;;;;;;;1.00;0.90;;;13.90;59.10;;;12.90;61.90;100144.84;12259408;19;20010;-82
2022/12/29 08:49:10;;;;;;;1.00;0.90;;;14.00;59.10;;;12.88;61.90;100124.94;12260055;19;20010;-82
2022/12/29 08:53:12;;;;;;;0.98;0.98;;;14.00;58.90;;;12.83;61.90;100114.81;12257934;19;20347;-82
2022/12/29 08:57:14;;;;;;;0.98;0.90;;;14.10;58.90;;;13.01;61.87;100141.41;12261470;19;20014;-82
2022/12/29 09:01:30;;;;;;;0.90;0.80;;;14.10;59.10;;;13.03;61.99;100137.72;12250434;19;20014;-82
2022/12/29 09:05:31;;;;;;;1.75;0.90;;;14.10;58.90;;;13.04;61.79;100141.19;12257752;19;20781;-82
2022/12/29 09:09:33;;;;;;;2.03;1.20;;;14.10;59.00;;;13.05;61.83;100137.63;12257832;19;20014;-83
2022/12/29 09:13:35;;;;;;;1.70;1.40;;;14.20;58.80;;;13.07;61.80;100138.34;12256194;19;20487;-83
2022/12/29 09:17:43;;;;;;;1.80;1.70;;;14.20;58.80;;;13.00;61.92;100118.78;12254968;19;20007;-84
2022/12/29 09:21:45;;;;;;;1.17;1.08;;;14.20;59.00;;;12.98;61.68;100116.25;12247339;19;20441;-83
2022/12/29 09:25:47;;;;;;;1.05;1.00;;;14.20;58.70;;;13.13;61.68;100129.19;12255768;19;20018;-83
2022/12/29 09:29:49;;;;;;;0.70;0.70;;;14.30;59.00;;;13.17;61.78;100131.44;12252256;19;20027;-82
2022/12/29 09:33:51;;;;;;;0.73;0.73;;;14.30;58.90;;;13.12;61.70;100114.41;12257257;19;20018;-82
2022/12/29 09:37:52;;;;;;;0.70;0.70;;;14.30;59.00;;;13.16;61.80;100121.91;12256727;19;20043;-82
2022/12/29 09:42:04;;;;;;;1.08;0.95;;;14.30;59.00;;;13.25;61.65;100112.50;12250430;19;20359;-83
2022/12/29 09:46:35;;;;;;;0.77;0.77;;;14.40;58.70;;;13.32;61.60;100121.63;12255616;19;20014;-82
2022/12/29 09:50:39;;;;;;;1.08;0.95;;;14.40;58.90;;;13.39;61.74;100086.09;12250352;19;20011;-81
2022/12/29 09:55:17;;;;;;;1.58;0.95;;;14.50;59.10;;;13.48;61.65;100095.88;12255172;19;20023;-82
2022/12/29 09:59:24;;;;;;;1.10;0.98;;;14.60;59.00;;;13.62;61.77;100096.59;12253606;19;20480;-82
2022/12/29 10:03:47;;;;;;;0.90;0.90;;;14.80;58.60;;;13.69;61.68;100068.91;12250875;19;20120;-82
2022/12/29 10:08:29;;;;;;;0.90;0.90;;;14.80;58.80;;;13.79;61.50;100066.41;12255857;19;20010;-82
2022/12/29 10:12:56;;;;;;;0.88;0.88;;;14.90;58.60;;;14.01;61.61;100086.53;12254317;19;20023;-82
2022/12/29 10:17:10;;;;;;;0.80;0.80;;;15.10;58.80;;;14.14;61.64;100082.78;12258104;19;20014;-81
2022/12/29 10:21:47;;;;;;;1.75;0.80;;;15.20;58.40;;;14.25;61.51;100094.22;12254628;19;20018;-82
2022/12/29 10:25:50;;;;;;;0.90;0.90;;;15.40;58.50;;;14.32;61.57;100071.78;12255560;19;20021;-82
2022/12/29 10:29:57;;;;;;;1.85;0.80;;;15.50;58.50;;;14.22;61.44;100049.84;12253623;19;20018;-83
2022/12/29 10:34:05;;;;;;;4.78;1.00;;;15.60;58.50;;;14.53;61.29;100082.34;12256758;19;20025;-82
2022/12/29 10:38:39;;;;;;;1.00;0.70;;;15.70;58.10;;;14.55;61.38;100075.16;12252898;19;20015;-81
2022/12/29 10:42:47;;;;;;;0.90;0.90;;;15.80;57.90;;;14.69;61.40;100101.16;12249934;19;20489;-82
2022/12/29 10:46:58;;;;;;;1.20;1.10;;;15.80;58.20;;;14.59;61.07;100060.81;12252390;19;20010;-81
2022/12/29 10:51:04;;;;;;;1.15;0.90;;;15.90;57.30;;;14.78;60.97;100081.16;12250447;19;20010;-82
2022/12/29 10:55:21;;;;;;;1.55;0.93;;;15.90;57.80;;;14.73;60.97;100072.81;12254175;19;20018;-82
2022/12/29 10:59:28;;;;;;;0.60;0.60;;;15.90;57.90;;;14.83;61.06;100064.03;12251526;19;20031;-82
2022/12/29 11:03:41;;;;;;;1.05;1.00;;;16.00;57.80;;;14.83;60.92;100069.28;12250542;19;20014;-81
2022/12/29 11:07:43;;;;;;;0.75;0.75;;;16.10;57.20;;;14.86;60.89;100064.75;12247085;19;20014;-82
2022/12/29 11:11:45;;;;;;;1.25;0.80;;;16.10;57.40;;;14.86;60.94;100067.38;12241611;19;20029;-82
2022/12/29 11:15:49;;;;;;;1.08;0.98;;;16.10;57.40;;;14.98;60.74;100082.09;12242498;19;20481;-82
2022/12/29 11:19:51;;;;;;;0.77;0.77;;;16.10;57.10;;;15.01;60.75;100082.72;12246031;19;20011;-83
2022/12/29 11:24:25;;;;;;;2.38;0.80;;;16.20;57.60;;;14.99;60.82;100089.88;12242768;19;20078;-82
2022/12/29 11:28:30;;;;;;;1.35;0.90;;;16.10;57.30;;;14.95;60.72;100079.75;12247684;19;20022;-82
2022/12/29 11:32:32;;;;;;;0.93;0.93;;;16.20;57.20;;;14.93;60.66;100084.28;12245898;19;20027;-82
2022/12/29 11:36:35;;;;;;;2.38;0.82;;;16.10;57.40;;;14.98;60.70;100103.16;12246972;19;20022;-82
2022/12/29 11:40:39;;;;;;;1.25;0.90;;;16.20;57.90;;;14.97;60.66;100107.56;12242338;19;20036;-82
2022/12/29 11:44:48;;;;;;;1.88;1.48;;;16.10;58.30;;;14.83;60.57;100106.09;12245801;19;20014;-82
2022/12/29 11:48:50;;;;;;;2.22;1.65;;;16.10;58.70;;;14.46;60.90;100060.97;12245176;19;20026;-82
2022/12/29 11:53:17;;;;;;;1.52;1.42;;;16.00;58.90;;;14.59;60.94;100119.47;12245268;19;20011;-82
2022/12/29 11:57:21;;;;;;;1.10;1.00;;;15.90;59.20;;;14.62;60.85;100123.63;12246283;19;20033;-82
2022/12/29 12:01:38;;;;;;;0.90;0.90;;;15.80;59.50;;;14.52;60.78;100123.53;12237394;19;20022;-82
2022/12/29 12:05:57;;;;;;;1.02;1.02;;;15.70;59.70;;;14.47;60.93;100125.66;12244552;19;20015;-81
2022/12/29 12:10:02;;;;;;;1.20;1.10;;;15.60;59.90;;;14.33;61.14;100092.66;12244749;19;20090;-81
2022/12/29 12:14:14;;;;;;;;;;;15.50;60.10;;;14.29;61.08;100101.75;12246905;19;20489;-81
2022/12/29 12:18:47;;;;;;;0.95;0.80;;;15.50;60.00;;;14.20;61.11;100085.88;12244704;19;19919;-81
2022/12/29 12:23:24;;;;;;;0.90;0.90;;;15.40;60.60;;;14.29;61.09;100106.16;12242894;19;20011;-82
2022/12/29 12:27:41;;;;;;;1.13;0.80;;;15.30;60.90;;;14.13;61.10;100091.63;12246119;19;20025;-82
2022/12/29 12:31:57;;;;;;;1.15;1.05;;;15.30;61.10;;;14.20;61.16;100159.41;12242328;19;20019;-81
2022/12/29 12:36:35;;;;;;;1.23;1.10;;;15.20;61.30;;;14.13;61.19;100144.16;12259333;19;20345;-81
2022/12/29 12:40:52;;;;;;;1.48;1.38;;;15.20;61.60;;;14.07;61.21;100139.41;12257070;19;20543;-81
2022/12/29 12:45:24;;;;;;;1.10;1.00;;;15.10;61.50;;;13.98;61.15;100144.53;12260290;19;20495;-82
2022/12/29 12:50:00;;;;;;;0.88;0.80;;;15.00;60.90;;;13.85;61.32;100123.66;12258803;19;20534;-82
2022/12/29 12:54:38;;;;;;;1.07;1.00;;;14.90;60.80;;;13.82;61.21;100110.78;12258392;19;20022;-81
2022/12/29 12:59:01;;;;;;;0.77;0.77;;;14.80;60.80;;;13.75;61.22;100109.59;12260604;19;20006;-82
2022/12/29 13:03:26;;;;;;;0.65;0.60;;;14.70;60.70;;;13.70;61.31;100104.72;12256014;19;20010;-81
2022/12/29 13:08:07;;;;;;;0.68;0.63;;;14.70;60.80;;;13.62;61.40;100091.34;12258024;19;20015;-81
2022/12/29 13:12:34;;;;;;;0.40;0.40;;;14.60;61.00;;;13.67;61.31;100105.78;12258531;19;20370;-82
2022/12/29 13:17:06;;;;;;;0.80;0.60;;;14.60;60.90;;;13.61;61.39;100103.66;12255165;19;20010;-81
2022/12/29 13:21:42;;;;;;;0.57;0.50;;;14.60;61.10;;;13.69;61.32;100121.38;12251701;19;20015;-82
2022/12/29 13:26:17;;;;;;;0.43;0.43;;;14.60;61.30;;;13.69;61.39;100135.38;12252744;19;20026;-81
2022/12/29 13:30:29;;;;;;;0.70;0.70;;;14.60;61.30;;;13.61;61.36;100103.66;12251599;19;20026;-82
2022/12/29 13:34:59;;;;;;;0.70;0.70;;;14.70;61.50;;;13.65;61.38;100118.19;12255820;19;20722;-81
2022/12/29 13:39:15;;;;;;;0.50;0.50;;;14.70;61.60;;;13.77;61.26;100123.41;12252611;19;20077;-81
2022/12/29 13:43:19;;;;;;;0.98;0.60;;;14.70;61.50;;;13.73;61.35;100128.91;12250681;19;20014;-82
2022/12/29 13:47:38;;;;;;;0.40;0.40;;;14.70;61.30;;;13.76;61.26;100129.63;12250573;19;20011;-81
2022/12/29 13:52:36;;;;;;;0.65;0.65;;;14.70;61.40;;;13.71;61.47;100136.06;12250019;19;20115;-81
2022/12/29 13:56:49;;;;;;;0.60;0.60;;;14.70;61.20;;;13.68;61.31;100132.84;12251977;19;20015;-81
2022/12/29 14:01:31;;;;;;;3.10;1.02;;;14.60;61.00;;;13.66;61.34;100129.50;12248186;19;20021;-82
2022/12/29 14:05:33;;;;;;;1.17;0.60;;;14.60;61.10;;;13.61;61.40;100131.66;12250215;19;20018;-81
2022/12/29 14:09:51;;;;;;;0.70;0.70;;;14.60;61.10;;;13.65;61.38;100141.78;12249698;19;20018;-82
2022/12/29 14:13:53;;;;;;;0.82;0.70;;;14.60;61.10;;;13.59;61.43;100126.53;12251213;19;20038;-82
2022/12/29 14:18:12;;;;;;;2.78;1.40;;;14.60;61.00;;;13.54;61.43;100128.69;12250389;19;20381;-82
2022/12/29 14:22:25;;;;;;;1.85;1.25;;;14.60;61.00;;;13.60;61.44;100140.47;12249438;19;20022;-82
2022/12/29 14:26:29;;;;;;;1.50;1.40;;;14.50;60.80;;;13.59;61.46;100142.28;12248924;19;20051;-82
2022/12/29 14:30:49;;;;;;;1.87;1.33;;;14.50;61.20;;;13.55;61.42;100148.69;12247792;19;20035;-82
2022/12/29 14:35:39;;;;;;;1.60;1.25;;;14.50;60.90;;;13.50;61.39;100146.44;12251178;19;20300;-82
2022/12/29 14:39:45;;;;;;;1.75;1.50;;;14.50;61.10;;;13.39;61.42;100130.69;12250090;19;20015;-83
2022/12/29 14:44:15;;;;;;;1.08;1.00;;;14.40;61.00;;;13.39;61.29;100142.97;12245562;19;20021;-82
2022/12/29 14:48:38;;;;;;;1.23;1.13;;;14.40;60.90;;;13.26;61.45;100140.47;12248410;19;20040;-81
2022/12/29 14:53:01;;;;;;;1.10;1.00;;;14.30;61.00;;;13.32;61.41;100158.34;12246354;19;20017;-82
2022/12/29 14:57:10;;;;;;;1.30;0.98;;;14.30;61.00;;;13.14;61.43;100129.06;12250296;19;20014;-82
2022/12/29 15:01:50;;;;;;;0.65;0.65;;;14.30;61.10;;;13.32;61.41;100173.25;12246450;19;20010;-82
2022/12/29 15:06:11;;;;;;;1.00;0.90;;;14.30;60.90;;;13.31;61.43;100176.78;12247944;19;20074;-82
2022/12/29 15:10:19;;;;;;;1.02;0.93;;;14.20;60.80;;;13.25;61.45;100168.41;12246592;19;20090;-82
2022/12/29 15:14:55;;;;;;;0.95;0.85;;;14.20;60.70;;;13.24;61.44;100184.28;12245427;19;20544;-82
2022/12/29 15:18:59;;;;;;;1.00;1.00;;;14.20;60.70;;;13.19;61.47;100176.75;12248082;19;20116;-82
2022/12/29 15:23:15;;;;;;;1.90;1.73;;;14.20;60.40;;;13.05;61.48;100169.09;12245800;19;20007;-82
2022/12/29 15:27:26;;;;;;;4.35;1.65;;;14.10;60.00;;;13.13;61.45;100194.72;12247647;19;20014;-82
2022/12/29 15:31:28;;;;;;;3.83;2.30;;;14.10;60.00;;;13.12;61.47;100201.72;12242916;19;20042;-83
2022/12/29 15:35:34;;;;;;;3.60;2.13;;;14.10;60.20;;;13.09;61.39;100198.50;12245371;19;20010;-82
2022/12/29 15:39:36;;;;;;;2.55;1.90;;;14.10;59.90;;;13.13;61.44;100215.69;12246697;19;20350;-82
2022/12/29 15:44:25;;;;;;;2.47;1.80;;;14.10;59.90;;;13.06;61.39;100220.53;12243753;19;20342;-82
2022/12/29 15:48:28;;;;;;;3.95;2.20;;;14.10;60.00;;;13.15;61.30;100225.13;12245849;19;20015;-82
2022/12/29 15:52:33;;;;;;;2.22;1.55;;;14.10;59.90;;;13.12;61.42;100235.81;12244696;19;20006;-82
2022/12/29 15:56:34;;;;;;;1.13;1.13;;;14.10;59.90;;;13.11;61.45;100228.09;12245617;19;20007;-82
2022/12/29 16:00:37;;;;;;;1.65;1.17;;;14.10;59.60;;;13.13;61.45;100240.13;12245117;19;20477;-82
2022/12/29 16:04:39;;;;;;;1.13;1.02;;;14.10;59.60;;;12.76;61.36;100187.78;12246704;19;20107;-82
2022/12/29 16:08:41;;;;;;;1.00;0.90;;;14.10;59.50;;;13.09;61.37;100246.53;12252399;19;20006;-82
2022/12/29 16:12:43;;;;;;;1.30;1.20;;;14.10;59.40;;;13.06;61.28;100234.47;12257089;19;20011;-82
2022/12/29 16:16:47;;;;;;;0.90;0.90;;;14.10;59.40;;;13.00;61.39;100231.50;12257618;19;20010;-82
2022/12/29 16:20:49;;;;;;;1.10;1.00;;;14.10;59.40;;;13.08;61.32;100250.13;12253587;19;20042;-82
2022/12/29 16:24:50;;;;;;;1.25;1.00;;;14.10;59.30;;;12.70;61.30;100198.72;12257238;19;20066;-82
2022/12/29 16:28:58;;;;;;;1.00;1.00;;;14.10;59.30;;;13.04;61.29;100261.75;12253200;19;20014;-82
2022/12/29 16:33:04;;;;;;;1.05;0.93;;;14.10;59.20;;;13.00;61.29;100260.31;12256233;19;20010;-82
2022/12/29 16:37:29;;;;;;;0.88;0.80;;;14.10;59.10;;;13.02;61.24;100277.63;12258428;19;20475;-82
2022/12/29 16:41:31;;;;;;;1.02;0.93;;;14.10;59.20;;;13.02;61.21;100276.78;12253518;19;20014;-82
2022/12/29 16:45:45;;;;;;;1.63;1.20;;;14.00;59.20;;;13.00;61.11;100289.16;12255781;19;20023;-82
2022/12/29 16:49:52;;;;;;;1.50;1.13;;;14.00;59.10;;;12.93;61.29;100282.66;12255434;19;20011;-82
2022/12/29 16:53:55;;;;;;;0.82;0.80;;;14.00;59.10;;;12.97;61.25;100297.25;12255976;19;20006;-82
2022/12/29 16:57:58;;;;;;;0.73;0.73;;;14.00;59.00;;;12.87;61.17;100276.09;12257139;19;20007;-81
2022/12/29 17:02:08;;;;;;;1.20;1.00;;;14.00;59.00;;;12.84;61.16;100286.78;12253524;19;20024;-82
2022/12/29 17:06:22;;;;;;;0.90;0.90;;;13.90;58.80;;;12.86;61.10;100302.41;12255152;19;20793;-82
2022/12/29 17:11:53;;;;;;;1.10;0.93;;;13.90;58.70;;;12.88;61.18;100305.75;12260655;19;20022;-83
2022/12/29 17:15:08;;;;;;;1.23;1.13;;;13.90;58.70;;;12.80;61.06;100304.53;12262633;19;20018;-82
2022/12/29 17:19:17;;;;;;;1.10;1.00;;;13.90;58.60;;;12.71;61.08;100297.31;12258006;19;20043;-82
2022/12/29 17:23:19;;;;;;;1.67;1.52;;;13.90;58.50;;;12.76;61.22;100305.69;12257778;19;20677;-82
2022/12/29 17:27:28;;;;;;;3.15;1.90;;;13.80;58.50;;;12.81;61.16;100315.84;12261023;19;20032;-82
2022/12/29 17:31:30;;;;;;;3.50;1.92;;;13.80;58.40;;;12.69;60.96;100303.59;12255965;19;20082;-83
2022/12/29 17:35:32;;;;;;;2.15;1.70;;;13.80;58.30;;;12.81;61.08;100327.16;12261130;19;20017;-83
2022/12/29 17:39:33;;;;;;;1.50;1.20;;;13.80;58.30;;;12.67;60.97;100308.13;12260314;19;20011;-82
2022/12/29 17:43:35;;;;;;;0.90;0.80;;;13.90;58.30;;;12.77;61.06;100323.09;12259720;19;20019;-82
2022/12/29 17:47:37;;;;;;;2.90;1.15;;;13.80;58.20;;;12.82;60.98;100318.34;12261474;19;20006;-82